sensor_id;sensor_type;location;lat;lon;timestamp;pressure;altitude;pressure_sealevel;temperature;humidity
84145;BME280;74264;48.988;12.040;2023-11-21T00:02:22;97319.44;;;6.12;91.36
84145;BME280;74264;48.988;12.040;2023-11-21T00:04:48;97311.03;;;6.08;91.47
84145;BME280;74264;48.988;12.040;2023-11-21T00:07:14;97307.72;;;6.06;91.44
84145;BME280;74264;48.988;12.040;2023-11-21T00:09:40;97310.81;;;6.01;91.40
84145;BME280;74264;48.988;12.040;2023-11-21T00:12:10;97312.75;;;5.99;91.36
84145;BME280;74264;48.988;12.040;2023-11-21T00:14:38;97317.38;;;5.97;91.24
84145;BME280;74264;48.988;12.040;2023-11-21T00:17:04;97318.50;;;5.95;91.37
84145;BME280;74264;48.988;12.040;2023-11-21T00:19:31;97306.81;;;5.89;91.45
84145;BME280;74264;48.988;12.040;2023-11-21T00:21:57;97321.66;;;5.81;91.56
84145;BME280;74264;48.988;12.040;2023-11-21T00:24:24;97319.31;;;5.78;91.86
84145;BME280;74264;48.988;12.040;2023-11-21T00:26:50;97308.91;;;5.86;92.16
84145;BME280;74264;48.988;12.040;2023-11-21T00:29:17;97314.53;;;5.91;91.70
84145;BME280;74264;48.988;12.040;2023-11-21T00:31:44;97317.38;;;5.97;91.86
84145;BME280;74264;48.988;12.040;2023-11-21T00:34:11;97321.19;;;6.03;90.92
84145;BME280;74264;48.988;12.040;2023-11-21T00:36:37;97322.16;;;6.02;90.96
84145;BME280;74264;48.988;12.040;2023-11-21T00:39:03;97315.94;;;6.03;91.50
84145;BME280;74264;48.988;12.040;2023-11-21T00:41:31;97314.28;;;6.02;91.41
84145;BME280;74264;48.988;12.040;2023-11-21T00:43:57;97318.41;;;6.05;91.41
84145;BME280;74264;48.988;12.040;2023-11-21T00:46:22;97310.00;;;6.01;91.44
84145;BME280;74264;48.988;12.040;2023-11-21T00:48:49;97320.38;;;6.03;91.33
84145;BME280;74264;48.988;12.040;2023-11-21T00:51:16;97327.09;;;6.05;91.26
84145;BME280;74264;48.988;12.040;2023-11-21T00:53:42;97327.63;;;6.09;91.41
84145;BME280;74264;48.988;12.040;2023-11-21T00:56:08;97326.81;;;6.08;90.88
84145;BME280;74264;48.988;12.040;2023-11-21T00:58:34;97323.84;;;6.11;91.12
84145;BME280;74264;48.988;12.040;2023-11-21T01:01:00;97328.81;;;6.14;91.18
84145;BME280;74264;48.988;12.040;2023-11-21T01:03:25;97324.53;;;6.13;90.53
84145;BME280;74264;48.988;12.040;2023-11-21T01:05:51;97328.16;;;6.12;90.95
84145;BME280;74264;48.988;12.040;2023-11-21T01:08:16;97332.41;;;6.13;90.68
84145;BME280;74264;48.988;12.040;2023-11-21T01:10:42;97334.59;;;6.18;91.23
84145;BME280;74264;48.988;12.040;2023-11-21T01:13:07;97335.28;;;6.20;90.78
84145;BME280;74264;48.988;12.040;2023-11-21T01:15:34;97336.91;;;6.21;90.52
84145;BME280;74264;48.988;12.040;2023-11-21T01:17:59;97335.28;;;6.20;90.70
84145;BME280;74264;48.988;12.040;2023-11-21T01:20:25;97335.28;;;6.20;91.23
84145;BME280;74264;48.988;12.040;2023-11-21T01:22:52;97331.97;;;6.18;90.66
84145;BME280;74264;48.988;12.040;2023-11-21T01:25:20;97333.44;;;6.20;89.92
84145;BME280;74264;48.988;12.040;2023-11-21T01:27:46;97333.28;;;6.22;90.22
84145;BME280;74264;48.988;12.040;2023-11-21T01:30:12;97327.72;;;6.25;89.09
84145;BME280;74264;48.988;12.040;2023-11-21T01:32:38;97322.00;;;6.29;88.62
84145;BME280;74264;48.988;12.040;2023-11-21T01:35:05;97323.50;;;6.32;89.10
84145;BME280;74264;48.988;12.040;2023-11-21T01:37:32;97328.59;;;6.33;89.59
84145;BME280;74264;48.988;12.040;2023-11-21T01:39:59;97332.22;;;6.32;89.18
84145;BME280;74264;48.988;12.040;2023-11-21T01:42:25;97331.69;;;6.29;89.41
84145;BME280;74264;48.988;12.040;2023-11-21T01:44:51;97331.31;;;6.24;89.93
84145;BME280;74264;48.988;12.040;2023-11-21T01:47:17;97329.53;;;6.24;90.34
84145;BME280;74264;48.988;12.040;2023-11-21T01:49:44;97335.91;;;6.22;90.76
84145;BME280;74264;48.988;12.040;2023-11-21T01:52:11;97329.84;;;6.21;90.61
84145;BME280;74264;48.988;12.040;2023-11-21T01:54:37;97333.44;;;6.20;90.73
84145;BME280;74264;48.988;12.040;2023-11-21T01:57:03;97321.06;;;6.13;91.18
84145;BME280;74264;48.988;12.040;2023-11-21T01:59:34;97323.56;;;6.14;91.24
84145;BME280;74264;48.988;12.040;2023-11-21T02:02:10;97326.03;;;6.16;91.17
84145;BME280;74264;48.988;12.040;2023-11-21T02:04:37;97330.31;;;6.17;90.88
84145;BME280;74264;48.988;12.040;2023-11-21T02:07:03;97323.91;;;6.19;91.19
84145;BME280;74264;48.988;12.040;2023-11-21T02:09:31;97324.38;;;6.15;91.28
84145;BME280;74264;48.988;12.040;2023-11-21T02:11:57;97321.22;;;6.11;91.62
84145;BME280;74264;48.988;12.040;2023-11-21T02:14:25;97324.22;;;6.16;91.49
84145;BME280;74264;48.988;12.040;2023-11-21T02:16:52;97323.56;;;6.14;91.14
84145;BME280;74264;48.988;12.040;2023-11-21T02:19:19;97315.13;;;6.11;91.31
84145;BME280;74264;48.988;12.040;2023-11-21T02:22:02;97314.84;;;6.14;91.52
84145;BME280;74264;48.988;12.040;2023-11-21T02:24:32;97315.97;;;6.11;91.68
84145;BME280;74264;48.988;12.040;2023-11-21T02:26:58;97325.38;;;6.14;91.70
84145;BME280;74264;48.988;12.040;2023-11-21T02:29:23;97312.38;;;6.12;91.63
84145;BME280;74264;48.988;12.040;2023-11-21T02:31:54;97311.56;;;6.12;91.82
84145;BME280;74264;48.988;12.040;2023-11-21T02:34:22;97310.88;;;6.10;91.91
84145;BME280;74264;48.988;12.040;2023-11-21T02:36:48;97308.75;;;6.13;91.88
84145;BME280;74264;48.988;12.040;2023-11-21T02:39:17;97312.84;;;6.08;91.71
84145;BME280;74264;48.988;12.040;2023-11-21T02:41:43;97306.75;;;6.07;91.95
84145;BME280;74264;48.988;12.040;2023-11-21T02:44:09;97306.63;;;6.09;91.84
84145;BME280;74264;48.988;12.040;2023-11-21T02:46:36;97297.22;;;6.06;92.05
84145;BME280;74264;48.988;12.040;2023-11-21T02:49:02;97297.06;;;6.08;91.91
84145;BME280;74264;48.988;12.040;2023-11-21T02:51:28;97294.28;;;6.09;91.92
84145;BME280;74264;48.988;12.040;2023-11-21T02:53:54;97290.31;;;6.05;91.87
84145;BME280;74264;48.988;12.040;2023-11-21T02:56:20;97294.28;;;6.09;91.95
84145;BME280;74264;48.988;12.040;2023-11-21T02:58:45;97292.31;;;6.11;91.75
84145;BME280;74264;48.988;12.040;2023-11-21T03:01:11;97288.72;;;6.12;91.82
84145;BME280;74264;48.988;12.040;2023-11-21T03:03:38;97292.16;;;6.13;91.71
84145;BME280;74264;48.988;12.040;2023-11-21T03:06:06;97291.19;;;6.14;91.62
84145;BME280;74264;48.988;12.040;2023-11-21T03:08:32;97293.81;;;6.14;91.79
84145;BME280;74264;48.988;12.040;2023-11-21T03:10:58;97289.84;;;6.10;91.95
84145;BME280;74264;48.988;12.040;2023-11-21T03:13:24;97291.47;;;6.03;91.90
84145;BME280;74264;48.988;12.040;2023-11-21T03:15:49;97286.34;;;6.01;91.90
84145;BME280;74264;48.988;12.040;2023-11-21T03:18:15;97273.56;;;6.06;91.59
84145;BME280;74264;48.988;12.040;2023-11-21T03:20:43;97281.13;;;6.09;91.39
84145;BME280;74264;48.988;12.040;2023-11-21T03:23:11;97279.66;;;6.07;91.87
84145;BME280;74264;48.988;12.040;2023-11-21T03:25:37;97280.59;;;5.97;91.82
84145;BME280;74264;48.988;12.040;2023-11-21T03:28:03;97278.47;;;6.01;91.46
84145;BME280;74264;48.988;12.040;2023-11-21T03:30:29;97277.31;;;6.03;91.32
84145;BME280;74264;48.988;12.040;2023-11-21T03:32:54;97275.34;;;5.97;91.72
84145;BME280;74264;48.988;12.040;2023-11-21T03:35:20;97271.53;;;5.92;91.61
84145;BME280;74264;48.988;12.040;2023-11-21T03:37:47;97278.09;;;5.96;92.23
84145;BME280;74264;48.988;12.040;2023-11-21T03:40:12;97282.53;;;5.95;92.13
84145;BME280;74264;48.988;12.040;2023-11-21T03:42:38;97283.50;;;5.94;91.87
84145;BME280;74264;48.988;12.040;2023-11-21T03:45:08;97279.75;;;5.97;91.55
84145;BME280;74264;48.988;12.040;2023-11-21T03:47:34;97282.38;;;5.97;91.29
84145;BME280;74264;48.988;12.040;2023-11-21T03:50:00;97286.28;;;5.93;91.34
84145;BME280;74264;48.988;12.040;2023-11-21T03:52:26;97282.69;;;5.94;91.90
84145;BME280;74264;48.988;12.040;2023-11-21T03:54:52;97287.63;;;5.97;91.61
84145;BME280;74264;48.988;12.040;2023-11-21T03:57:18;97286.66;;;5.98;91.72
84145;BME280;74264;48.988;12.040;2023-11-21T03:59:43;97295.81;;;5.94;91.81
84145;BME280;74264;48.988;12.040;2023-11-21T04:02:09;97294.50;;;5.90;91.78
84145;BME280;74264;48.988;12.040;2023-11-21T04:04:35;97296.97;;;5.91;91.90
84145;BME280;74264;48.988;12.040;2023-11-21T04:07:01;97295.78;;;5.86;92.06
84145;BME280;74264;48.988;12.040;2023-11-21T04:09:27;97296.34;;;5.80;92.18
84145;BME280;74264;48.988;12.040;2023-11-21T04:11:53;97305.22;;;5.79;92.58
84145;BME280;74264;48.988;12.040;2023-11-21T04:14:19;97303.56;;;5.78;92.69
84145;BME280;74264;48.988;12.040;2023-11-21T04:16:45;97296.50;;;5.78;92.79
84145;BME280;74264;48.988;12.040;2023-11-21T04:19:11;97292.53;;;5.74;92.56
84145;BME280;74264;48.988;12.040;2023-11-21T04:21:37;97300.25;;;5.76;92.42
84145;BME280;74264;48.988;12.040;2023-11-21T04:24:03;97300.78;;;5.79;92.40
84145;BME280;74264;48.988;12.040;2023-11-21T04:26:29;97315.56;;;5.80;92.61
84145;BME280;74264;48.988;12.040;2023-11-21T04:28:54;97312.50;;;5.85;92.47
84145;BME280;74264;48.988;12.040;2023-11-21T04:31:20;97309.75;;;5.86;92.39
84145;BME280;74264;48.988;12.040;2023-11-21T04:33:45;97312.06;;;5.89;92.00
84145;BME280;74264;48.988;12.040;2023-11-21T04:36:11;97309.09;;;5.92;92.35
84145;BME280;74264;48.988;12.040;2023-11-21T04:38:36;97305.00;;;5.90;92.42
84145;BME280;74264;48.988;12.040;2023-11-21T04:41:02;97305.00;;;5.90;91.91
84145;BME280;74264;48.988;12.040;2023-11-21T04:43:27;97303.34;;;5.89;92.26
84145;BME280;74264;48.988;12.040;2023-11-21T04:45:54;97301.53;;;5.89;92.73
84145;BME280;74264;48.988;12.040;2023-11-21T04:48:23;97302.38;;;5.90;92.38
84145;BME280;74264;48.988;12.040;2023-11-21T04:50:48;97298.31;;;5.95;92.54
84145;BME280;74264;48.988;12.040;2023-11-21T04:53:14;97302.75;;;5.95;92.08
84145;BME280;74264;48.988;12.040;2023-11-21T04:55:40;97300.78;;;5.97;91.45
84145;BME280;74264;48.988;12.040;2023-11-21T04:58:07;97297.84;;;6.00;91.91
84145;BME280;74264;48.988;12.040;2023-11-21T05:00:34;97299.94;;;5.96;92.18
84145;BME280;74264;48.988;12.040;2023-11-21T05:02:59;97300.94;;;5.95;91.72
84145;BME280;74264;48.988;12.040;2023-11-21T05:05:26;97299.44;;;5.93;91.75
84145;BME280;74264;48.988;12.040;2023-11-21T05:07:52;97302.22;;;5.91;91.73
84145;BME280;74264;48.988;12.040;2023-11-21T05:10:19;97305.28;;;5.87;91.89
84145;BME280;74264;48.988;12.040;2023-11-21T05:12:45;97298.69;;;5.83;91.78
84145;BME280;74264;48.988;12.040;2023-11-21T05:15:14;97294.84;;;5.77;91.95
84145;BME280;74264;48.988;12.040;2023-11-21T05:17:41;97294.03;;;5.77;92.28
84145;BME280;74264;48.988;12.040;2023-11-21T05:20:10;97300.66;;;5.81;92.14
84145;BME280;74264;48.988;12.040;2023-11-21T05:22:37;97295.53;;;5.79;92.40
84145;BME280;74264;48.988;12.040;2023-11-21T05:25:03;97295.69;;;5.78;91.96
84145;BME280;74264;48.988;12.040;2023-11-21T05:27:30;97307.84;;;5.79;92.35
84145;BME280;74264;48.988;12.040;2023-11-21T05:29:59;97311.00;;;5.82;92.38
84145;BME280;74264;48.988;12.040;2023-11-21T05:32:24;97308.53;;;5.81;92.28
84145;BME280;74264;48.988;12.040;2023-11-21T05:34:50;97319.91;;;5.72;92.09
84145;BME280;74264;48.988;12.040;2023-11-21T05:37:16;97311.31;;;5.62;91.97
84145;BME280;74264;48.988;12.040;2023-11-21T05:39:43;97305.41;;;5.60;92.29
84145;BME280;74264;48.988;12.040;2023-11-21T05:42:08;97308.03;;;5.60;92.34
84145;BME280;74264;48.988;12.040;2023-11-21T05:44:37;97315.59;;;5.63;92.07
84145;BME280;74264;48.988;12.040;2023-11-21T05:47:02;97322.94;;;5.59;92.14
84145;BME280;74264;48.988;12.040;2023-11-21T05:49:29;97322.78;;;5.61;92.17
84145;BME280;74264;48.988;12.040;2023-11-21T05:51:55;97315.16;;;5.67;92.70
84145;BME280;74264;48.988;12.040;2023-11-21T05:54:21;97321.75;;;5.71;92.57
84145;BME280;74264;48.988;12.040;2023-11-21T05:56:47;97324.06;;;5.74;92.81
84145;BME280;74264;48.988;12.040;2023-11-21T05:59:13;97336.59;;;5.80;92.65
84145;BME280;74264;48.988;12.040;2023-11-21T06:01:38;97335.34;;;5.84;92.64
84145;BME280;74264;48.988;12.040;2023-11-21T06:04:05;97335.03;;;5.87;92.76
84145;BME280;74264;48.988;12.040;2023-11-21T06:06:30;97335.72;;;5.89;92.41
84145;BME280;74264;48.988;12.040;2023-11-21T06:08:57;97334.03;;;5.88;92.03
84145;BME280;74264;48.988;12.040;2023-11-21T06:11:22;97338.50;;;5.88;92.19
84145;BME280;74264;48.988;12.040;2023-11-21T06:13:48;97343.91;;;5.86;92.28
84145;BME280;74264;48.988;12.040;2023-11-21T06:16:15;97341.28;;;5.86;92.19
84145;BME280;74264;48.988;12.040;2023-11-21T06:18:43;97339.91;;;5.82;91.92
84145;BME280;74264;48.988;12.040;2023-11-21T06:21:09;97337.44;;;5.81;91.68
84145;BME280;74264;48.988;12.040;2023-11-21T06:23:35;97341.00;;;5.80;92.14
84145;BME280;74264;48.988;12.040;2023-11-21T06:26:01;97337.16;;;5.84;91.76
84145;BME280;74264;48.988;12.040;2023-11-21T06:28:26;97342.69;;;5.81;92.00
84145;BME280;74264;48.988;12.040;2023-11-21T06:30:52;97342.13;;;5.77;92.09
84145;BME280;74264;48.988;12.040;2023-11-21T06:33:18;97348.75;;;5.81;92.30
84145;BME280;74264;48.988;12.040;2023-11-21T06:35:44;97349.44;;;5.83;91.79
84145;BME280;74264;48.988;12.040;2023-11-21T06:38:10;97359.66;;;5.86;91.95
84145;BME280;74264;48.988;12.040;2023-11-21T06:40:36;97356.06;;;5.87;92.20
84145;BME280;74264;48.988;12.040;2023-11-21T06:43:01;97361.81;;;5.91;91.96
84145;BME280;74264;48.988;12.040;2023-11-21T06:45:27;97362.41;;;5.85;92.17
84145;BME280;74264;48.988;12.040;2023-11-21T06:47:53;97363.09;;;5.87;91.91
84145;BME280;74264;48.988;12.040;2023-11-21T06:50:18;97355.53;;;5.84;92.19
84145;BME280;74264;48.988;12.040;2023-11-21T06:52:44;97363.94;;;5.87;92.53
84145;BME280;74264;48.988;12.040;2023-11-21T06:55:09;97354.94;;;5.90;91.74
84145;BME280;74264;48.988;12.040;2023-11-21T06:57:36;97370.69;;;5.90;92.15
84145;BME280;74264;48.988;12.040;2023-11-21T07:00:02;97374.53;;;5.95;92.07
84145;BME280;74264;48.988;12.040;2023-11-21T07:02:28;97379.28;;;6.00;91.96
84145;BME280;74264;48.988;12.040;2023-11-21T07:04:54;97375.06;;;6.07;91.72
84145;BME280;74264;48.988;12.040;2023-11-21T07:07:19;97382.50;;;6.12;92.05
84145;BME280;74264;48.988;12.040;2023-11-21T07:09:45;97380.09;;;6.18;92.21
84145;BME280;74264;48.988;12.040;2023-11-21T07:12:10;97389.78;;;6.18;92.36
84145;BME280;74264;48.988;12.040;2023-11-21T07:14:36;97394.91;;;6.19;91.64
84145;BME280;74264;48.988;12.040;2023-11-21T07:17:04;97395.56;;;6.21;91.31
84145;BME280;74264;48.988;12.040;2023-11-21T07:19:30;97394.28;;;6.25;90.58
84145;BME280;74264;48.988;12.040;2023-11-21T07:21:56;97393.81;;;6.30;90.83
84145;BME280;74264;48.988;12.040;2023-11-21T07:24:21;97385.31;;;6.36;90.65
84145;BME280;74264;48.988;12.040;2023-11-21T07:26:48;97387.59;;;6.31;90.83
84145;BME280;74264;48.988;12.040;2023-11-21T07:29:14;97383.13;;;6.31;90.54
84145;BME280;74264;48.988;12.040;2023-11-21T07:31:40;97384.81;;;6.32;91.39
84145;BME280;74264;48.988;12.040;2023-11-21T07:34:06;97388.91;;;6.35;91.30
84145;BME280;74264;48.988;12.040;2023-11-21T07:36:33;97389.28;;;6.40;91.20
84145;BME280;74264;48.988;12.040;2023-11-21T07:38:59;97398.50;;;6.44;90.96
84145;BME280;74264;48.988;12.040;2023-11-21T07:41:25;97394.22;;;6.43;91.01
84145;BME280;74264;48.988;12.040;2023-11-21T07:43:51;97400.47;;;6.42;90.48
84145;BME280;74264;48.988;12.040;2023-11-21T07:46:16;97408.72;;;6.47;90.96
84145;BME280;74264;48.988;12.040;2023-11-21T07:48:42;97410.88;;;6.51;90.63
84145;BME280;74264;48.988;12.040;2023-11-21T07:51:09;97405.63;;;6.51;91.21
84145;BME280;74264;48.988;12.040;2023-11-21T07:53:35;97411.53;;;6.53;90.70
84145;BME280;74264;48.988;12.040;2023-11-21T07:56:05;97405.16;;;6.56;90.56
84145;BME280;74264;48.988;12.040;2023-11-21T07:58:31;97408.91;;;6.53;90.61
84145;BME280;74264;48.988;12.040;2023-11-21T08:00:59;97411.59;;;6.61;91.31
84145;BME280;74264;48.988;12.040;2023-11-21T08:03:25;97414.94;;;6.71;91.03
84145;BME280;74264;48.988;12.040;2023-11-21T08:06:00;97416.44;;;6.74;91.25
84145;BME280;74264;48.988;12.040;2023-11-21T08:08:25;97411.00;;;6.75;90.71
84145;BME280;74264;48.988;12.040;2023-11-21T08:10:52;97412.69;;;6.76;91.10
84145;BME280;74264;48.988;12.040;2023-11-21T08:13:27;97413.34;;;6.78;90.92
84145;BME280;74264;48.988;12.040;2023-11-21T08:15:57;97418.28;;;6.81;90.93
84145;BME280;74264;48.988;12.040;2023-11-21T08:18:27;97415.22;;;6.86;90.99
84145;BME280;74264;48.988;12.040;2023-11-21T08:20:54;97415.91;;;6.96;90.49
84145;BME280;74264;48.988;12.040;2023-11-21T08:23:20;97421.22;;;7.04;90.77
84145;BME280;74264;48.988;12.040;2023-11-21T08:25:46;97416.91;;;7.03;90.33
84145;BME280;74264;48.988;12.040;2023-11-21T08:28:12;97421.22;;;7.04;90.55
84145;BME280;74264;48.988;12.040;2023-11-21T08:30:40;97431.28;;;7.17;90.36
84145;BME280;74264;48.988;12.040;2023-11-21T08:33:07;97426.56;;;7.28;90.28
84145;BME280;74264;48.988;12.040;2023-11-21T08:35:34;97431.00;;;7.28;89.41
84145;BME280;74264;48.988;12.040;2023-11-21T08:37:59;97431.50;;;7.31;89.42
84145;BME280;74264;48.988;12.040;2023-11-21T08:40:25;97436.97;;;7.38;90.11
84145;BME280;74264;48.988;12.040;2023-11-21T08:42:51;97423.44;;;7.33;89.27
84145;BME280;74264;48.988;12.040;2023-11-21T08:45:18;97436.31;;;7.36;89.37
84145;BME280;74264;48.988;12.040;2023-11-21T08:47:44;97434.69;;;7.43;89.12
84145;BME280;74264;48.988;12.040;2023-11-21T08:50:11;97439.44;;;7.47;89.09
84145;BME280;74264;48.988;12.040;2023-11-21T08:52:38;97436.69;;;7.49;88.18
84145;BME280;74264;48.988;12.040;2023-11-21T08:55:07;97441.28;;;7.55;87.99
84145;BME280;74264;48.988;12.040;2023-11-21T08:57:38;97443.13;;;7.62;87.48
84145;BME280;74264;48.988;12.040;2023-11-21T09:00:07;97443.16;;;7.70;87.04
84145;BME280;74264;48.988;12.040;2023-11-21T09:02:43;97441.03;;;7.74;87.34
84145;BME280;74264;48.988;12.040;2023-11-21T09:05:10;97447.13;;;7.82;87.40
84145;BME280;74264;48.988;12.040;2023-11-21T09:07:37;97445.81;;;7.86;86.47
84145;BME280;74264;48.988;12.040;2023-11-21T09:10:04;97448.94;;;7.90;87.04
84145;BME280;74264;48.988;12.040;2023-11-21T09:12:36;97464.28;;;7.94;86.33
84145;BME280;74264;48.988;12.040;2023-11-21T09:15:06;97451.59;;;7.98;86.15
84145;BME280;74264;48.988;12.040;2023-11-21T09:17:33;97462.97;;;7.90;86.55
84145;BME280;74264;48.988;12.040;2023-11-21T09:19:59;97461.66;;;7.94;85.99
84145;BME280;74264;48.988;12.040;2023-11-21T09:22:25;97468.56;;;7.95;86.38
84145;BME280;74264;48.988;12.040;2023-11-21T09:24:51;97461.81;;;8.01;86.86
84145;BME280;74264;48.988;12.040;2023-11-21T09:27:17;97466.94;;;8.11;86.67
84145;BME280;74264;48.988;12.040;2023-11-21T09:29:43;97473.72;;;8.13;86.85
84145;BME280;74264;48.988;12.040;2023-11-21T09:32:09;97474.69;;;8.12;86.14
84145;BME280;74264;48.988;12.040;2023-11-21T09:34:39;97476.50;;;8.20;85.16
84145;BME280;74264;48.988;12.040;2023-11-21T09:37:05;97473.38;;;8.16;83.79
84145;BME280;74264;48.988;12.040;2023-11-21T09:39:32;97468.09;;;8.16;85.18
84145;BME280;74264;48.988;12.040;2023-11-21T09:42:15;97468.94;;;8.17;84.08
84145;BME280;74264;48.988;12.040;2023-11-21T09:44:51;97467.44;;;8.22;84.93
84145;BME280;74264;48.988;12.040;2023-11-21T09:47:22;97468.94;;;8.25;84.08
84145;BME280;74264;48.988;12.040;2023-11-21T09:49:48;97470.25;;;8.21;84.24
84145;BME280;74264;48.988;12.040;2023-11-21T09:52:28;97467.75;;;8.19;84.23
84145;BME280;74264;48.988;12.040;2023-11-21T09:54:54;97461.88;;;8.25;83.50
84145;BME280;74264;48.988;12.040;2023-11-21T09:57:23;97468.59;;;8.20;83.12
84145;BME280;74264;48.988;12.040;2023-11-21T09:59:51;97464.50;;;8.33;82.75
84145;BME280;74264;48.988;12.040;2023-11-21T10:02:22;97462.34;;;8.29;82.71
84145;BME280;74264;48.988;12.040;2023-11-21T10:04:51;97466.34;;;8.41;82.63
84145;BME280;74264;48.988;12.040;2023-11-21T10:07:19;97470.78;;;8.40;82.84
84145;BME280;74264;48.988;12.040;2023-11-21T10:09:46;97467.47;;;8.38;81.90
84145;BME280;74264;48.988;12.040;2023-11-21T10:12:13;97464.00;;;8.38;82.25
84145;BME280;74264;48.988;12.040;2023-11-21T10:14:41;97463.03;;;8.39;81.09
84145;BME280;74264;48.988;12.040;2023-11-21T10:17:07;97467.63;;;8.61;81.54
84145;BME280;74264;48.988;12.040;2023-11-21T10:19:36;97468.75;;;8.74;80.15
84145;BME280;74264;48.988;12.040;2023-11-21T10:22:02;97464.16;;;8.68;79.87
84145;BME280;74264;48.988;12.040;2023-11-21T10:24:29;97466.47;;;8.79;80.88
84145;BME280;74264;48.988;12.040;2023-11-21T10:26:54;97472.25;;;8.67;81.75
84145;BME280;74264;48.988;12.040;2023-11-21T10:29:20;97471.44;;;8.66;83.26
84145;BME280;74264;48.988;12.040;2023-11-21T10:31:50;97465.13;;;8.67;81.62
84145;BME280;74264;48.988;12.040;2023-11-21T10:34:18;97472.75;;;8.62;81.21
84145;BME280;74264;48.988;12.040;2023-11-21T10:36:44;97470.09;;;8.54;82.36
84145;BME280;74264;48.988;12.040;2023-11-21T10:39:18;97470.63;;;8.50;82.38
84145;BME280;74264;48.988;12.040;2023-11-21T10:41:45;97474.72;;;8.52;81.85
84145;BME280;74264;48.988;12.040;2023-11-21T10:44:16;97468.47;;;8.61;81.39
84145;BME280;74264;48.988;12.040;2023-11-21T10:46:50;97476.88;;;8.65;82.41
84145;BME280;74264;48.988;12.040;2023-11-21T10:49:20;97473.06;;;8.75;81.79
84145;BME280;74264;48.988;12.040;2023-11-21T10:51:45;97471.38;;;8.74;80.98
84145;BME280;74264;48.988;12.040;2023-11-21T10:54:20;97472.72;;;8.78;80.68
84145;BME280;74264;48.988;12.040;2023-11-21T10:56:48;97475.69;;;8.83;80.15
84145;BME280;74264;48.988;12.040;2023-11-21T10:59:17;97475.53;;;8.85;80.49
84145;BME280;74264;48.988;12.040;2023-11-21T11:01:45;97486.09;;;8.85;82.24
84145;BME280;74264;48.988;12.040;2023-11-21T11:04:14;97475.69;;;8.67;79.21
84145;BME280;74264;48.988;12.040;2023-11-21T11:06:51;97479.50;;;8.65;79.44
84145;BME280;74264;48.988;12.040;2023-11-21T11:09:17;97473.41;;;8.64;79.55
84145;BME280;74264;48.988;12.040;2023-11-21T11:11:43;97477.34;;;8.52;80.16
84145;BME280;74264;48.988;12.040;2023-11-21T11:14:13;97478.69;;;8.56;79.27
84145;BME280;74264;48.988;12.040;2023-11-21T11:16:40;97472.06;;;8.52;80.18
84145;BME280;74264;48.988;12.040;2023-11-21T11:19:10;97476.38;;;8.53;80.51
84145;BME280;74264;48.988;12.040;2023-11-21T11:27:31;97471.41;;;8.58;80.72
84145;BME280;74264;48.988;12.040;2023-11-21T11:30:06;97464.31;;;8.51;80.17
84145;BME280;74264;48.988;12.040;2023-11-21T11:32:47;97461.19;;;8.39;79.97
84145;BME280;74264;48.988;12.040;2023-11-21T11:35:34;97460.06;;;8.42;79.80
84145;BME280;74264;48.988;12.040;2023-11-21T11:38:03;97462.53;;;8.43;80.47
84145;BME280;74264;48.988;12.040;2023-11-21T11:40:41;97464.00;;;8.46;80.75
84145;BME280;74264;48.988;12.040;2023-11-21T11:43:10;97459.91;;;8.35;79.32
84145;BME280;74264;48.988;12.040;2023-11-21T11:45:37;97461.53;;;8.36;79.35
84145;BME280;74264;48.988;12.040;2023-11-21T11:48:07;97466.00;;;8.44;79.64
84145;BME280;74264;48.988;12.040;2023-11-21T11:50:33;97467.81;;;8.51;79.84
84145;BME280;74264;48.988;12.040;2023-11-21T11:53:20;97464.50;;;8.41;79.14
84145;BME280;74264;48.988;12.040;2023-11-21T11:55:46;97474.41;;;8.55;78.89
84145;BME280;74264;48.988;12.040;2023-11-21T11:58:11;97476.22;;;8.63;78.81
84145;BME280;74264;48.988;12.040;2023-11-21T12:00:37;97473.53;;;8.79;79.16
84145;BME280;74264;48.988;12.040;2023-11-21T12:03:08;97477.00;;;8.71;78.40
84145;BME280;74264;48.988;12.040;2023-11-21T12:05:35;97476.34;;;8.77;80.19
84145;BME280;74264;48.988;12.040;2023-11-21T12:08:05;97473.88;;;8.76;78.71
84145;BME280;74264;48.988;12.040;2023-11-21T12:10:37;97471.91;;;8.78;79.16
84145;BME280;74264;48.988;12.040;2023-11-21T12:13:07;97468.25;;;8.79;78.88
84145;BME280;74264;48.988;12.040;2023-11-21T12:15:34;97463.81;;;8.79;79.88
84145;BME280;74264;48.988;12.040;2023-11-21T12:18:00;97473.06;;;8.75;81.71
84145;BME280;74264;48.988;12.040;2023-11-21T12:20:27;97470.25;;;8.69;82.51
84145;BME280;74264;48.988;12.040;2023-11-21T12:22:58;97467.94;;;8.66;81.57
84145;BME280;74264;48.988;12.040;2023-11-21T12:25:30;97463.69;;;8.57;80.26
84145;BME280;74264;48.988;12.040;2023-11-21T12:27:59;97466.00;;;8.52;79.84
84145;BME280;74264;48.988;12.040;2023-11-21T12:30:29;97465.16;;;8.51;80.10
84145;BME280;74264;48.988;12.040;2023-11-21T12:32:57;97465.66;;;8.55;81.05
84145;BME280;74264;48.988;12.040;2023-11-21T12:35:25;97465.66;;;8.55;81.68
84145;BME280;74264;48.988;12.040;2023-11-21T12:37:53;97464.81;;;8.54;80.14
84145;BME280;74264;48.988;12.040;2023-11-21T12:40:19;97474.88;;;8.51;81.13
84145;BME280;74264;48.988;12.040;2023-11-21T12:42:46;97476.06;;;8.48;80.86
84145;BME280;74264;48.988;12.040;2023-11-21T12:48:02;97484.28;;;8.45;80.83
84145;BME280;74264;48.988;12.040;2023-11-21T12:50:33;97482.81;;;8.43;80.99
84145;BME280;74264;48.988;12.040;2023-11-21T12:53:00;97490.06;;;8.41;81.33
84145;BME280;74264;48.988;12.040;2023-11-21T12:55:26;97485.09;;;8.38;81.35
84145;BME280;74264;48.988;12.040;2023-11-21T12:57:55;97493.19;;;8.36;82.15
84145;BME280;74264;48.988;12.040;2023-11-21T13:00:31;97484.28;;;8.29;83.23
84145;BME280;74264;48.988;12.040;2023-11-21T13:02:58;97485.13;;;8.30;84.41
84145;BME280;74264;48.988;12.040;2023-11-21T13:05:25;97475.72;;;8.27;81.56
84145;BME280;74264;48.988;12.040;2023-11-21T13:07:52;97483.63;;;8.27;82.42
84145;BME280;74264;48.988;12.040;2023-11-21T13:10:22;97490.53;;;8.28;81.91